Terminal Aerodrome Forecast
Issued by NWS

Home | Current Version | Previous Version | Text Only | Print | Product List | Glossary On
Versions: 1 2 3 4 5 6 7 8 9 10 11 12 13 14 15 16
000
FTUS44 KBMX 022320
TAFTOI
TAF
KTOI 022320Z 0300/0324 04008KT P6SM BKN080
     FM030200 00000KT P6SM SCT250
     FM031100 00000KT 6SM BR SCT250
     FM031500 35004KT P6SM SKC=

USA.gov is the U.S. government's official web portal to all federal, state and local government web resources and services.